Schneifelwetter: Wetterstation Hallschlag, 537 m . NN
Wetterdaten: Sonntag, 12.12.2010
Datum Zeit Temp. A. Feuchte A. Luftdruck Regen Wind Richtung Richtung Sonnenschein Helligkeit T Regen Taupunkt Windchill
12.12.2010 00:10 1,2 C 97 % 1014 hPa 0,0 l/m 26,4 km/h (4 Bft) W22.5 260 0 min 0 lux 0,00 min 0,8 C -10,6 C
12.12.2010 00:25 1,2 C 97 % 1014 hPa 0,0 l/m 34,8 km/h (5 Bft) W22.5 260 0 min 0 lux 0,00 min 0,8 C -13,0 C
12.12.2010 00:40 1,2 C 97 % 1014 hPa 0,0 l/m 27,3 km/h (4 Bft) W22.5 270 0 min 0 lux 0,00 min 0,8 C -10,9 C
12.12.2010 00:55 1,2 C 96 % 1014 hPa 0,0 l/m 26,2 km/h (4 Bft) W67.5 275 0 min 0 lux 0,00 min 0,6 C -10,5 C
12.12.2010 01:10 1,2 C 96 % 1014 hPa 0,0 l/m 25,1 km/h (4 Bft) W22.5 275 0 min 0 lux 0,00 min 0,6 C -10,1 C
12.12.2010 01:25 1,2 C 96 % 1014 hPa 0,0 l/m 28,3 km/h (4 Bft) W45 260 0 min 0 lux 0,00 min 0,6 C -11,2 C
12.12.2010 01:40 1,2 C 95 % 1014 hPa 0,0 l/m 28,8 km/h (4 Bft) W22.5 265 0 min 0 lux 0,00 min 0,5 C -11,4 C
12.12.2010 01:55 1,2 C 96 % 1014 hPa 0,0 l/m 26,0 km/h (4 Bft) W22.5 270 0 min 0 lux 0,00 min 0,6 C -10,4 C
12.12.2010 02:10 1,2 C 96 % 1014 hPa 0,0 l/m 22,8 km/h (4 Bft) W22.5 270 0 min 0 lux 0,00 min 0,6 C -9,3 C
12.12.2010 02:25 1,0 C 96 % 1014 hPa 0,0 l/m 31,1 km/h (5 Bft) W22.5 265 0 min 0 lux 0,00 min 0,4 C -12,3 C
12.12.2010 02:40 1,1 C 96 % 1013 hPa 0,0 l/m 27,7 km/h (4 Bft) W45 275 0 min 0 lux 0,00 min 0,5 C -11,2 C
12.12.2010 02:55 1,2 C 96 % 1013 hPa 0,0 l/m 23,1 km/h (4 Bft) W45 265 0 min 0 lux 0,00 min 0,6 C -9,4 C
12.12.2010 03:10 1,2 C 96 % 1013 hPa 0,0 l/m 31,0 km/h (5 Bft) W22.5 270 0 min 0 lux 0,00 min 0,6 C -12,0 C
12.12.2010 03:25 1,2 C 96 % 1013 hPa 0,0 l/m 30,2 km/h (5 Bft) W45 275 0 min 0 lux 0,00 min 0,6 C -11,8 C
12.12.2010 03:40 1,1 C 96 % 1013 hPa 0,0 l/m 21,4 km/h (4 Bft) W22.5 260 0 min 0 lux 0,00 min 0,5 C -8,8 C
12.12.2010 03:55 1,1 C 96 % 1013 hPa 0,0 l/m 27,6 km/h (4 Bft) W-NW67.5 290 0 min 0 lux 0,00 min 0,5 C -11,1 C
12.12.2010 04:10 1,2 C 96 % 1013 hPa 0,0 l/m 31,8 km/h (5 Bft) W-NW67.5 285 0 min 0 lux 0,00 min 0,6 C -12,2 C
12.12.2010 04:25 1,2 C 96 % 1012 hPa 0,0 l/m 24,9 km/h (4 Bft) W-NW67.5 295 0 min 0 lux 0,00 min 0,6 C -10,1 C
12.12.2010 04:40 1,1 C 96 % 1013 hPa 0,0 l/m 28,1 km/h (4 Bft) W-NW67.5 285 0 min 0 lux 0,00 min 0,5 C -11,3 C
12.12.2010 04:55 1,1 C 96 % 1013 hPa 0,0 l/m 22,0 km/h (4 Bft) NW67.5 315 0 min 0 lux 0,00 min 0,5 C -9,1 C
12.12.2010 05:10 1,1 C 96 % 1013 hPa 0,0 l/m 18,3 km/h (3 Bft) W-NW67.5 295 0 min 0 lux 0,00 min 0,5 C -7,4 C
12.12.2010 05:25 0,9 C 94 % 1013 hPa 0,0 l/m 27,1 km/h (4 Bft) NW67.5 310 0 min 0 lux 0,00 min 0,0 C -11,2 C
12.12.2010 05:40 0,7 C 94 % 1013 hPa 0,3 l/m 32,2 km/h (5 Bft) N-NW45 330 0 min 0 lux 15,00 min -0,2 C -13,1 C
12.12.2010 05:55 0,7 C 94 % 1013 hPa 0,0 l/m 35,9 km/h (5 Bft) N-NW67.5 330 0 min 0 lux 0,00 min -0,2 C -14,0 C
12.12.2010 06:10 0,6 C 93 % 1013 hPa 0,0 l/m 33,9 km/h (5 Bft) NW67.5 305 0 min 0 lux 0,00 min -0,4 C -13,6 C
12.12.2010 06:26 0,6 C 93 % 1013 hPa 0,0 l/m 34,2 km/h (5 Bft) W-NW67.5 300 0 min 0 lux 0,00 min -0,4 C -13,7 C
12.12.2010 06:41 0,5 C 93 % 1013 hPa 0,0 l/m 24,4 km/h (4 Bft) W-NW67.5 300 0 min 0 lux 0,00 min -0,5 C -10,8 C
12.12.2010 06:56 0,5 C 94 % 1013 hPa 0,0 l/m 28,6 km/h (4 Bft) N-NW67.5 330 0 min 0 lux 0,00 min -0,4 C -12,3 C
12.12.2010 07:11 0,4 C 94 % 1013 hPa 0,0 l/m 27,1 km/h (4 Bft) NW45 315 0 min 0 lux 0,00 min -0,5 C -11,9 C
12.12.2010 07:26 0,3 C 94 % 1013 hPa 0,0 l/m 28,5 km/h (4 Bft) W67.5 280 0 min 0 lux 0,00 min -0,5 C -12,5 C
12.12.2010 07:41 0,3 C 95 % 1013 hPa 0,0 l/m 21,9 km/h (4 Bft) W22.5 270 0 min 0 lux 0,00 min -0,4 C -10,1 C
12.12.2010 07:56 0,3 C 95 % 1012 hPa 0,0 l/m 16,8 km/h (3 Bft) W67.5 275 0 min 0 lux 0,00 min -0,4 C -7,6 C
12.12.2010 08:11 0,2 C 95 % 1013 hPa 0,0 l/m 11,8 km/h (2 Bft) W-NW45 285 0 min 99 lux 0,00 min -0,5 C -4,6 C
12.12.2010 08:26 0,3 C 96 % 1013 hPa 0,0 l/m 15,2 km/h (3 Bft) W45 280 0 min 411 lux 0,00 min -0,3 C -6,7 C
12.12.2010 08:41 0,3 C 96 % 1013 hPa 0,0 l/m 14,5 km/h (3 Bft) W 260 0 min 635 lux 0,00 min -0,3 C -6,3 C
12.12.2010 08:56 0,3 C 96 % 1013 hPa 0,0 l/m 12,0 km/h (2 Bft) W-NW45 285 0 min 811 lux 0,00 min -0,3 C -4,7 C
12.12.2010 09:11 0,4 C 97 % 1013 hPa 0,0 l/m 31,2 km/h (5 Bft) NW67.5 305 0 min 1,51 klux 0,00 min -0,0 C -13,2 C
12.12.2010 09:31 0,5 C 96 % 1013 hPa 0,0 l/m 19,2 km/h (3 Bft) NW45 310 0 min 4,56 klux 0,00 min -0,1 C -8,6 C
12.12.2010 09:46 0,6 C 96 % 1013 hPa 0,0 l/m 9,8 km/h (2 Bft) W-NW45 300 0 min 7,01 klux 0,00 min 0,0 C -2,6 C
12.12.2010 10:01 0,6 C 96 % 1013 hPa 0,0 l/m 25,0 km/h (4 Bft) W-NW45 295 0 min 10,0 klux 0,00 min 0,0 C -10,9 C
12.12.2010 10:16 0,9 C 96 % 1013 hPa 0,0 l/m 19,1 km/h (3 Bft) W45 275 0 min 9,7 klux 0,00 min 0,3 C -8,1 C
12.12.2010 10:32 1,0 C 96 % 1013 hPa 0,0 l/m 17,3 km/h (3 Bft) W-NW45 290 0 min 8,25 klux 0,00 min 0,4 C -7,0 C
12.12.2010 10:47 1,0 C 96 % 1013 hPa 0,0 l/m 14,9 km/h (3 Bft) W-NW45 285 0 min 9,5 klux 0,00 min 0,4 C -5,7 C
12.12.2010 11:02 1,1 C 96 % 1013 hPa 0,0 l/m 12,5 km/h (3 Bft) W-NW22.5 285 0 min 11,8 klux 0,00 min 0,5 C -4,1 C
12.12.2010 11:16 1,1 C 96 % 1013 hPa 0,0 l/m 15,0 km/h (3 Bft) W-NW45 290 0 min 8,26 klux 0,00 min 0,5 C -5,6 C
12.12.2010 11:31 1,1 C 96 % 1014 hPa 0,0 l/m 22,2 km/h (4 Bft) W-NW67.5 290 0 min 7,93 klux 0,00 min 0,5 C -9,2 C
12.12.2010 11:46 1,1 C 96 % 1013 hPa 0,0 l/m 13,5 km/h (3 Bft) W-NW45 285 0 min 9,3 klux 0,00 min 0,5 C -4,7 C
12.12.2010 12:02 1,2 C 96 % 1014 hPa 0,0 l/m 15,1 km/h (3 Bft) W-NW45 290 0 min 8,20 klux 0,00 min 0,6 C -5,6 C
12.12.2010 12:17 1,2 C 96 % 1013 hPa 0,0 l/m 21,8 km/h (4 Bft) W-NW45 290 0 min 9,9 klux 0,00 min 0,6 C -8,9 C
12.12.2010 12:32 1,2 C 95 % 1013 hPa 0,0 l/m 20,1 km/h (4 Bft) NW45 310 0 min 8,96 klux 0,00 min 0,5 C -8,1 C
12.12.2010 12:46 1,2 C 96 % 1013 hPa 0,0 l/m 13,2 km/h (3 Bft) NW67.5 305 0 min 7,46 klux 0,00 min 0,6 C -4,4 C
12.12.2010 13:01 1,2 C 96 % 1013 hPa 0,0 l/m 14,3 km/h (3 Bft) W67.5 280 0 min 13,5 klux 0,00 min 0,6 C -5,1 C
12.12.2010 13:16 1,3 C 96 % 1013 hPa 0,0 l/m 12,1 km/h (2 Bft) W45 275 0 min 15,7 klux 0,00 min 0,7 C -3,6 C
12.12.2010 13:31 1,2 C 96 % 1013 hPa 0,0 l/m 9,4 km/h (2 Bft) W22.5 280 0 min 9,8 klux 0,00 min 0,6 C -1,6 C
12.12.2010 13:47 1,2 C 96 % 1013 hPa 0,0 l/m 15,0 km/h (3 Bft) NW45 310 0 min 13,9 klux 0,00 min 0,6 C -5,5 C
12.12.2010 14:02 1,2 C 95 % 1013 hPa 0,6 l/m 20,4 km/h (4 Bft) NW45 305 0 min 9,7 klux 15,00 min 0,5 C -8,3 C
12.12.2010 14:17 1,2 C 95 % 1013 hPa 0,0 l/m 15,5 km/h (3 Bft) NW45 310 0 min 9,9 klux 0,00 min 0,5 C -5,8 C
12.12.2010 14:31 1,1 C 95 % 1013 hPa 0,0 l/m 8,3 km/h (2 Bft) N-NW22.5 330 0 min 6,73 klux 0,00 min 0,4 C -0,8 C
12.12.2010 14:46 1,1 C 96 % 1013 hPa 0,6 l/m 0,1 km/h (0 Bft) W 275 0 min 6,59 klux 15,00 min 0,5 C 1,1 C
12.12.2010 15:01 0,9 C 96 % 1013 hPa 0,0 l/m 6,7 km/h (2 Bft) NW 325 0 min 4,56 klux 0,00 min 0,3 C 0,6 C
12.12.2010 15:16 0,8 C 96 % 1013 hPa 0,0 l/m 0,0 km/h (0 Bft) NW 320 0 min 3,82 klux 0,00 min 0,2 C 0,8 C
12.12.2010 15:32 0,7 C 96 % 1013 hPa 0,3 l/m 12,0 km/h (2 Bft) N22.5 360 0 min 3,57 klux 16,00 min 0,1 C -4,2 C
12.12.2010 15:47 0,5 C 96 % 1013 hPa 0,0 l/m 16,9 km/h (3 Bft) N-NW67.5 340 0 min 2,33 klux 0,00 min -0,1 C -7,4 C
12.12.2010 16:02 0,5 C 96 % 1013 hPa 0,0 l/m 24,0 km/h (4 Bft) N45 350 0 min 1,79 klux 0,00 min -0,1 C -10,7 C
12.12.2010 16:16 0,5 C 96 % 1014 hPa 0,0 l/m 22,6 km/h (4 Bft) N45 350 0 min 1,74 klux 0,00 min -0,1 C -10,1 C
12.12.2010 16:31 0,5 C 96 % 1014 hPa 0,0 l/m 13,8 km/h (3 Bft) N-NW45 345 0 min 819 lux 0,00 min -0,1 C -5,6 C
12.12.2010 16:46 0,4 C 96 % 1014 hPa 0,0 l/m 15,8 km/h (3 Bft) N67.5 350 0 min 303 lux 0,00 min -0,2 C -7,0 C
12.12.2010 17:02 0,3 C 96 % 1014 hPa 0,0 l/m 31,9 km/h (5 Bft) N22.5 5 0 min 56 lux 0,00 min -0,3 C -13,5 C
12.12.2010 17:17 -0,6 C 97 % 1014 hPa 0,3 l/m 33,4 km/h (5 Bft) NO67.5 35 0 min 6 lux 15,00 min -1,0 C -15,2 C
12.12.2010 17:32 -0,8 C 97 % 1014 hPa 0,0 l/m 28,3 km/h (4 Bft) N 5 0 min 0 lux 0,00 min -1,2 C -14,0 C
12.12.2010 17:46 -1,0 C 97 % 1014 hPa 0,0 l/m 34,2 km/h (5 Bft) N 5 0 min 0 lux 0,00 min -1,4 C -16,0 C
12.12.2010 18:01 -1,3 C 95 % 1015 hPa 0,0 l/m 38,0 km/h (5 Bft) N 5 0 min 0 lux 0,00 min -2,0 C -17,4 C
12.12.2010 18:16 -1,4 C 95 % 1015 hPa 0,0 l/m 30,0 km/h (5 Bft) N 5 0 min 0 lux 0,00 min -2,1 C -15,4 C
12.12.2010 18:31 -1,5 C 94 % 1015 hPa 0,0 l/m 31,4 km/h (5 Bft) N 5 0 min 0 lux 0,00 min -2,3 C -15,9 C
12.12.2010 18:47 -1,7 C 93 % 1015 hPa 0,0 l/m 35,4 km/h (5 Bft) N 5 0 min 0 lux 0,00 min -2,7 C -17,4 C
12.12.2010 19:02 -1,8 C 92 % 1015 hPa 0,0 l/m 37,2 km/h (5 Bft) N 5 0 min 0 lux 0,00 min -2,9 C -18,0 C
12.12.2010 19:17 -1,9 C 92 % 1015 hPa 0,0 l/m 30,3 km/h (5 Bft) N 5 0 min 0 lux 0,00 min -3,0 C -16,2 C
12.12.2010 19:31 -2,1 C 91 % 1015 hPa 0,0 l/m 27,3 km/h (4 Bft) N 5 0 min 0 lux 0,00 min -3,4 C -15,4 C
12.12.2010 19:46 -2,3 C 91 % 1016 hPa 0,0 l/m 34,0 km/h (5 Bft) N 5 0 min 0 lux 0,00 min -3,6 C -17,8 C
12.12.2010 20:01 -2,7 C 90 % 1015 hPa 0,0 l/m 25,8 km/h (4 Bft) N 5 0 min 0 lux 0,00 min -4,1 C -15,7 C
12.12.2010 20:16 -3,0 C 91 % 1016 hPa 0,0 l/m 21,5 km/h (4 Bft) N 5 0 min 0 lux 0,00 min -4,3 C -14,2 C
12.12.2010 20:32 -3,0 C 91 % 1016 hPa 0,0 l/m 29,0 km/h (5 Bft) N 5 0 min 0 lux 0,00 min -4,3 C -17,3 C
12.12.2010 20:47 -3,1 C 89 % 1016 hPa 0,0 l/m 25,0 km/h (4 Bft) N 5 0 min 0 lux 0,00 min -4,6 C -15,9 C
12.12.2010 21:02 -3,3 C 86 % 1016 hPa 0,0 l/m 32,1 km/h (5 Bft) N 5 0 min 0 lux 0,00 min -5,3 C -18,7 C
12.12.2010 21:16 -3,4 C 87 % 1016 hPa 0,0 l/m 25,9 km/h (4 Bft) N 5 0 min 0 lux 0,00 min -5,2 C -16,7 C
12.12.2010 21:31 -3,4 C 88 % 1016 hPa 0,0 l/m 19,7 km/h (3 Bft) N 5 0 min 0 lux 0,00 min -5,1 C -13,9 C
12.12.2010 21:46 -3,5 C 88 % 1016 hPa 0,0 l/m 32,2 km/h (5 Bft) N 5 0 min 0 lux 0,00 min -5,2 C -19,0 C
12.12.2010 22:02 -3,7 C 89 % 1016 hPa 0,0 l/m 28,0 km/h (4 Bft) N 5 0 min 0 lux 0,00 min -5,2 C -17,9 C
12.12.2010 22:17 -3,8 C 89 % 1016 hPa 0,0 l/m 23,0 km/h (4 Bft) N 5 0 min 0 lux 0,00 min -5,3 C -16,0 C
12.12.2010 22:32 -4,0 C 90 % 1016 hPa 0,0 l/m 21,6 km/h (4 Bft) N 5 0 min 0 lux 0,00 min -5,4 C -15,6 C
12.12.2010 22:47 -4,2 C 89 % 1017 hPa 0,0 l/m 30,8 km/h (5 Bft) N 5 0 min 0 lux 0,00 min -5,7 C -19,6 C
12.12.2010 23:01 -4,4 C 89 % 1017 hPa 0,0 l/m 31,6 km/h (5 Bft) N 5 0 min 0 lux 0,00 min -5,9 C -20,1 C
12.12.2010 23:16 -4,6 C 89 % 1017 hPa 0,0 l/m 26,1 km/h (4 Bft) N 5 0 min 0 lux 0,00 min -6,1 C -18,4 C
12.12.2010 23:31 -4,6 C 89 % 1017 hPa 0,0 l/m 30,2 km/h (5 Bft) N 5 0 min 0 lux 0,00 min -6,1 C -19,9 C
12.12.2010 23:47 -4,8 C 90 % 1017 hPa 0,0 l/m 21,3 km/h (4 Bft) N 5 0 min 0 lux 0,00 min -6,2 C -16,5 C
_ Min-Zeit 23:47 21:02 04:25 - 15:16 - - - - - 23:47 23:01
Minimum _ -4,8 C 86 % 1012 hPa - 0,0 km/h (0 Bft) - - - - - -6,2 C -20,1 C
_ Max-Zeit 13:16 00:10 22:47 14:02 18:01 - - 00:10 13:16 15:32 00:10 14:46
Maximum _ 1,3 C 97 % 1017 hPa 0,6 l/m 38,0 km/h
N (5 Bft)
- - 0 min 15,7 klux 16,00 min 0,8 C 1,1 C
Durchschnitt _ -0,2 C 94 % 1014 hPa #2,1 l/m 23,4 km/h (4 Bft) N - #0 min. 2,41 klux #1:16 h -1,0 C -10,8 C